sensor_id;sensor_type;location;lat;lon;timestamp;P1;durP1;ratioP1;P2;durP2;ratioP2
49464;SDS011;35358;49.342;8.802;2023-03-23T00:00:02;4.38;;;0.70;;
49464;SDS011;35358;49.342;8.802;2023-03-23T00:02:31;1.42;;;0.70;;
49464;SDS011;35358;49.342;8.802;2023-03-23T00:07:29;1.13;;;0.60;;
49464;SDS011;35358;49.342;8.802;2023-03-23T00:09:55;2.05;;;0.75;;
49464;SDS011;35358;49.342;8.802;2023-03-23T00:12:21;1.77;;;0.60;;
49464;SDS011;35358;49.342;8.802;2023-03-23T00:15:00;1.63;;;0.68;;
49464;SDS011;35358;49.342;8.802;2023-03-23T00:17:26;2.08;;;0.70;;
49464;SDS011;35358;49.342;8.802;2023-03-23T00:19:57;0.68;;;0.55;;
49464;SDS011;35358;49.342;8.802;2023-03-23T00:22:25;1.35;;;0.73;;
49464;SDS011;35358;49.342;8.802;2023-03-23T00:24:52;2.95;;;0.90;;
49464;SDS011;35358;49.342;8.802;2023-03-23T00:27:21;4.88;;;0.70;;
49464;SDS011;35358;49.342;8.802;2023-03-23T00:29:48;3.17;;;0.68;;
49464;SDS011;35358;49.342;8.802;2023-03-23T00:32:17;1.73;;;0.68;;
49464;SDS011;35358;49.342;8.802;2023-03-23T00:34:45;2.45;;;1.10;;
49464;SDS011;35358;49.342;8.802;2023-03-23T00:37:13;1.83;;;0.80;;
49464;SDS011;35358;49.342;8.802;2023-03-23T00:39:42;1.67;;;0.57;;
49464;SDS011;35358;49.342;8.802;2023-03-23T00:42:13;0.52;;;0.43;;
49464;SDS011;35358;49.342;8.802;2023-03-23T00:44:40;1.13;;;0.60;;
49464;SDS011;35358;49.342;8.802;2023-03-23T00:47:06;1.35;;;0.80;;
49464;SDS011;35358;49.342;8.802;2023-03-23T00:49:35;2.40;;;0.70;;
49464;SDS011;35358;49.342;8.802;2023-03-23T00:52:04;2.08;;;0.60;;
49464;SDS011;35358;49.342;8.802;2023-03-23T00:54:31;1.05;;;0.77;;
49464;SDS011;35358;49.342;8.802;2023-03-23T00:56:58;2.63;;;0.50;;
49464;SDS011;35358;49.342;8.802;2023-03-23T00:59:24;1.48;;;0.63;;
49464;SDS011;35358;49.342;8.802;2023-03-23T01:01:50;1.00;;;0.80;;
49464;SDS011;35358;49.342;8.802;2023-03-23T01:04:16;1.10;;;0.80;;
49464;SDS011;35358;49.342;8.802;2023-03-23T01:06:42;0.85;;;0.80;;
49464;SDS011;35358;49.342;8.802;2023-03-23T01:09:10;1.83;;;0.85;;
49464;SDS011;35358;49.342;8.802;2023-03-23T01:11:40;2.63;;;0.70;;
49464;SDS011;35358;49.342;8.802;2023-03-23T01:14:07;1.45;;;0.95;;
49464;SDS011;35358;49.342;8.802;2023-03-23T01:16:32;2.03;;;0.80;;
49464;SDS011;35358;49.342;8.802;2023-03-23T01:18:58;3.13;;;0.80;;
49464;SDS011;35358;49.342;8.802;2023-03-23T01:21:24;1.60;;;0.60;;
49464;SDS011;35358;49.342;8.802;2023-03-23T01:23:50;1.48;;;0.80;;
49464;SDS011;35358;49.342;8.802;2023-03-23T01:26:17;1.77;;;0.90;;
49464;SDS011;35358;49.342;8.802;2023-03-23T01:28:44;0.85;;;0.65;;
49464;SDS011;35358;49.342;8.802;2023-03-23T01:31:14;2.25;;;0.65;;
49464;SDS011;35358;49.342;8.802;2023-03-23T01:33:44;3.13;;;0.85;;
49464;SDS011;35358;49.342;8.802;2023-03-23T01:36:14;1.25;;;0.63;;
49464;SDS011;35358;49.342;8.802;2023-03-23T01:38:42;1.50;;;0.80;;
49464;SDS011;35358;49.342;8.802;2023-03-23T01:41:09;0.60;;;0.50;;
49464;SDS011;35358;49.342;8.802;2023-03-23T01:43:53;1.40;;;0.60;;
49464;SDS011;35358;49.342;8.802;2023-03-23T01:46:29;2.25;;;0.70;;
49464;SDS011;35358;49.342;8.802;2023-03-23T01:48:59;1.20;;;0.77;;
49464;SDS011;35358;49.342;8.802;2023-03-23T01:51:38;2.53;;;0.60;;
49464;SDS011;35358;49.342;8.802;2023-03-23T01:54:21;1.10;;;0.73;;
49464;SDS011;35358;49.342;8.802;2023-03-23T01:56:59;1.50;;;0.63;;
49464;SDS011;35358;49.342;8.802;2023-03-23T01:59:27;1.83;;;0.70;;
49464;SDS011;35358;49.342;8.802;2023-03-23T02:01:54;1.35;;;0.65;;
49464;SDS011;35358;49.342;8.802;2023-03-23T02:04:20;1.38;;;0.70;;
49464;SDS011;35358;49.342;8.802;2023-03-23T02:06:47;0.80;;;0.52;;
49464;SDS011;35358;49.342;8.802;2023-03-23T02:09:15;1.05;;;0.52;;
49464;SDS011;35358;49.342;8.802;2023-03-23T02:11:44;1.35;;;0.90;;
49464;SDS011;35358;49.342;8.802;2023-03-23T02:14:14;1.65;;;0.50;;
49464;SDS011;35358;49.342;8.802;2023-03-23T02:35:25;1.95;;;0.90;;
49464;SDS011;35358;49.342;8.802;2023-03-23T02:37:59;1.10;;;0.55;;
49464;SDS011;35358;49.342;8.802;2023-03-23T02:40:32;0.85;;;0.65;;
49464;SDS011;35358;49.342;8.802;2023-03-23T02:43:12;1.83;;;0.60;;
49464;SDS011;35358;49.342;8.802;2023-03-23T02:45:42;0.90;;;0.60;;
49464;SDS011;35358;49.342;8.802;2023-03-23T02:48:09;2.10;;;1.20;;
49464;SDS011;35358;49.342;8.802;2023-03-23T02:50:38;2.17;;;0.80;;
49464;SDS011;35358;49.342;8.802;2023-03-23T02:53:08;1.48;;;0.95;;
49464;SDS011;35358;49.342;8.802;2023-03-23T02:55:39;2.97;;;1.00;;
49464;SDS011;35358;49.342;8.802;2023-03-23T02:58:08;2.13;;;1.30;;
49464;SDS011;35358;49.342;8.802;2023-03-23T03:03:11;2.15;;;0.70;;
49464;SDS011;35358;49.342;8.802;2023-03-23T03:11:26;2.80;;;0.77;;
49464;SDS011;35358;49.342;8.802;2023-03-23T03:13:55;2.33;;;1.05;;
49464;SDS011;35358;49.342;8.802;2023-03-23T03:16:35;2.13;;;0.85;;
49464;SDS011;35358;49.342;8.802;2023-03-23T03:21:35;1.48;;;0.80;;
49464;SDS011;35358;49.342;8.802;2023-03-23T03:24:03;1.45;;;0.85;;
49464;SDS011;35358;49.342;8.802;2023-03-23T03:26:31;2.58;;;1.10;;
49464;SDS011;35358;49.342;8.802;2023-03-23T03:28:59;2.53;;;1.02;;
49464;SDS011;35358;49.342;8.802;2023-03-23T03:31:27;2.22;;;1.10;;
49464;SDS011;35358;49.342;8.802;2023-03-23T03:33:57;3.58;;;1.42;;
49464;SDS011;35358;49.342;8.802;2023-03-23T03:36:26;1.90;;;1.08;;
49464;SDS011;35358;49.342;8.802;2023-03-23T03:38:59;1.90;;;1.30;;
49464;SDS011;35358;49.342;8.802;2023-03-23T03:41:32;2.35;;;1.42;;
49464;SDS011;35358;49.342;8.802;2023-03-23T03:44:04;1.95;;;1.15;;
49464;SDS011;35358;49.342;8.802;2023-03-23T03:46:33;2.85;;;1.40;;
49464;SDS011;35358;49.342;8.802;2023-03-23T03:49:00;2.38;;;1.20;;
49464;SDS011;35358;49.342;8.802;2023-03-23T03:51:28;3.22;;;1.15;;
49464;SDS011;35358;49.342;8.802;2023-03-23T03:53:56;3.13;;;1.40;;
49464;SDS011;35358;49.342;8.802;2023-03-23T03:56:27;1.55;;;1.25;;
49464;SDS011;35358;49.342;8.802;2023-03-23T03:58:53;2.38;;;1.20;;
49464;SDS011;35358;49.342;8.802;2023-03-23T04:01:19;3.38;;;1.17;;
49464;SDS011;35358;49.342;8.802;2023-03-23T04:03:47;3.25;;;1.20;;
49464;SDS011;35358;49.342;8.802;2023-03-23T04:06:14;2.72;;;1.02;;
49464;SDS011;35358;49.342;8.802;2023-03-23T04:08:39;2.88;;;0.90;;
49464;SDS011;35358;49.342;8.802;2023-03-23T04:11:07;1.75;;;0.85;;
49464;SDS011;35358;49.342;8.802;2023-03-23T04:13:35;2.80;;;1.20;;
49464;SDS011;35358;49.342;8.802;2023-03-23T04:16:01;1.38;;;0.77;;
49464;SDS011;35358;49.342;8.802;2023-03-23T04:18:27;1.40;;;0.80;;
49464;SDS011;35358;49.342;8.802;2023-03-23T04:20:59;1.88;;;1.00;;
49464;SDS011;35358;49.342;8.802;2023-03-23T04:23:28;3.83;;;1.17;;
49464;SDS011;35358;49.342;8.802;2023-03-23T04:26:00;1.60;;;0.70;;
49464;SDS011;35358;49.342;8.802;2023-03-23T04:28:26;2.92;;;0.93;;
49464;SDS011;35358;49.342;8.802;2023-03-23T04:30:52;1.80;;;0.80;;
49464;SDS011;35358;49.342;8.802;2023-03-23T04:33:19;2.03;;;0.90;;
49464;SDS011;35358;49.342;8.802;2023-03-23T04:35:46;1.67;;;1.00;;
49464;SDS011;35358;49.342;8.802;2023-03-23T04:38:14;1.88;;;0.98;;
49464;SDS011;35358;49.342;8.802;2023-03-23T04:40:41;4.43;;;1.17;;
49464;SDS011;35358;49.342;8.802;2023-03-23T04:43:09;2.85;;;0.90;;
49464;SDS011;35358;49.342;8.802;2023-03-23T04:45:37;2.05;;;1.15;;
49464;SDS011;35358;49.342;8.802;2023-03-23T04:48:08;2.03;;;1.05;;
49464;SDS011;35358;49.342;8.802;2023-03-23T04:50:38;1.42;;;1.15;;
49464;SDS011;35358;49.342;8.802;2023-03-23T04:53:06;1.45;;;0.98;;
49464;SDS011;35358;49.342;8.802;2023-03-23T04:55:34;2.38;;;1.17;;
49464;SDS011;35358;49.342;8.802;2023-03-23T04:58:02;1.98;;;1.23;;
49464;SDS011;35358;49.342;8.802;2023-03-23T05:00:31;2.92;;;1.30;;
49464;SDS011;35358;49.342;8.802;2023-03-23T05:02:58;2.58;;;0.88;;
49464;SDS011;35358;49.342;8.802;2023-03-23T05:05:28;3.20;;;1.20;;
49464;SDS011;35358;49.342;8.802;2023-03-23T05:07:57;2.35;;;1.17;;
49464;SDS011;35358;49.342;8.802;2023-03-23T05:10:27;2.05;;;1.17;;
49464;SDS011;35358;49.342;8.802;2023-03-23T05:12:53;2.75;;;1.50;;
49464;SDS011;35358;49.342;8.802;2023-03-23T05:15:19;2.78;;;1.15;;
49464;SDS011;35358;49.342;8.802;2023-03-23T05:17:45;2.13;;;1.40;;
49464;SDS011;35358;49.342;8.802;2023-03-23T05:20:14;4.65;;;1.60;;
49464;SDS011;35358;49.342;8.802;2023-03-23T05:22:46;2.10;;;1.45;;
49464;SDS011;35358;49.342;8.802;2023-03-23T05:25:20;2.05;;;1.10;;
49464;SDS011;35358;49.342;8.802;2023-03-23T05:27:46;1.50;;;1.15;;
49464;SDS011;35358;49.342;8.802;2023-03-23T05:30:17;4.35;;;1.48;;
49464;SDS011;35358;49.342;8.802;2023-03-23T05:32:43;2.05;;;1.42;;
49464;SDS011;35358;49.342;8.802;2023-03-23T05:35:15;3.35;;;1.30;;
49464;SDS011;35358;49.342;8.802;2023-03-23T05:37:44;3.97;;;1.45;;
49464;SDS011;35358;49.342;8.802;2023-03-23T05:40:12;1.75;;;0.90;;
49464;SDS011;35358;49.342;8.802;2023-03-23T05:42:41;2.03;;;0.98;;
49464;SDS011;35358;49.342;8.802;2023-03-23T05:45:07;2.17;;;1.00;;
49464;SDS011;35358;49.342;8.802;2023-03-23T05:47:35;2.42;;;1.02;;
49464;SDS011;35358;49.342;8.802;2023-03-23T05:50:01;2.75;;;1.10;;
49464;SDS011;35358;49.342;8.802;2023-03-23T05:52:27;1.52;;;1.35;;
49464;SDS011;35358;49.342;8.802;2023-03-23T05:54:55;2.70;;;1.10;;
49464;SDS011;35358;49.342;8.802;2023-03-23T05:57:24;2.92;;;1.00;;
49464;SDS011;35358;49.342;8.802;2023-03-23T05:59:55;2.07;;;0.77;;
49464;SDS011;35358;49.342;8.802;2023-03-23T06:02:22;1.90;;;1.05;;
49464;SDS011;35358;49.342;8.802;2023-03-23T06:04:49;1.88;;;0.88;;
49464;SDS011;35358;49.342;8.802;2023-03-23T06:07:17;1.70;;;1.08;;
49464;SDS011;35358;49.342;8.802;2023-03-23T06:09:43;1.17;;;0.70;;
49464;SDS011;35358;49.342;8.802;2023-03-23T06:12:08;1.52;;;1.00;;
49464;SDS011;35358;49.342;8.802;2023-03-23T06:14:36;0.88;;;0.63;;
49464;SDS011;35358;49.342;8.802;2023-03-23T06:17:04;1.40;;;0.80;;
49464;SDS011;35358;49.342;8.802;2023-03-23T06:19:33;1.98;;;0.93;;
49464;SDS011;35358;49.342;8.802;2023-03-23T06:21:59;1.90;;;0.90;;
49464;SDS011;35358;49.342;8.802;2023-03-23T06:24:26;2.03;;;0.68;;
49464;SDS011;35358;49.342;8.802;2023-03-23T06:26:56;1.98;;;0.80;;
49464;SDS011;35358;49.342;8.802;2023-03-23T06:29:22;1.30;;;0.80;;
49464;SDS011;35358;49.342;8.802;2023-03-23T06:31:48;1.25;;;0.70;;
49464;SDS011;35358;49.342;8.802;2023-03-23T06:34:21;1.20;;;0.90;;
49464;SDS011;35358;49.342;8.802;2023-03-23T06:36:47;2.92;;;0.88;;
49464;SDS011;35358;49.342;8.802;2023-03-23T06:39:13;1.25;;;0.73;;
49464;SDS011;35358;49.342;8.802;2023-03-23T06:41:43;1.67;;;0.70;;
49464;SDS011;35358;49.342;8.802;2023-03-23T06:44:11;1.92;;;0.90;;
49464;SDS011;35358;49.342;8.802;2023-03-23T06:46:40;2.10;;;0.90;;
49464;SDS011;35358;49.342;8.802;2023-03-23T06:49:07;2.83;;;0.70;;
49464;SDS011;35358;49.342;8.802;2023-03-23T06:51:35;1.33;;;1.00;;
49464;SDS011;35358;49.342;8.802;2023-03-23T06:54:01;1.23;;;0.85;;
49464;SDS011;35358;49.342;8.802;2023-03-23T06:56:27;2.45;;;0.70;;
49464;SDS011;35358;49.342;8.802;2023-03-23T06:58:55;1.35;;;0.63;;
49464;SDS011;35358;49.342;8.802;2023-03-23T07:01:21;2.22;;;0.70;;
49464;SDS011;35358;49.342;8.802;2023-03-23T07:03:47;1.48;;;0.75;;
49464;SDS011;35358;49.342;8.802;2023-03-23T07:06:15;1.45;;;0.95;;
49464;SDS011;35358;49.342;8.802;2023-03-23T07:08:46;5.07;;;2.83;;
49464;SDS011;35358;49.342;8.802;2023-03-23T07:11:12;3.83;;;2.17;;
49464;SDS011;35358;49.342;8.802;2023-03-23T07:13:37;3.22;;;1.52;;
49464;SDS011;35358;49.342;8.802;2023-03-23T07:16:06;3.33;;;1.10;;
49464;SDS011;35358;49.342;8.802;2023-03-23T07:18:33;3.42;;;1.52;;
49464;SDS011;35358;49.342;8.802;2023-03-23T07:20:59;3.85;;;1.70;;
49464;SDS011;35358;49.342;8.802;2023-03-23T07:23:28;3.40;;;1.40;;
49464;SDS011;35358;49.342;8.802;2023-03-23T07:25:54;2.08;;;0.93;;
49464;SDS011;35358;49.342;8.802;2023-03-23T07:28:20;3.00;;;1.20;;
49464;SDS011;35358;49.342;8.802;2023-03-23T07:30:46;1.75;;;0.93;;
49464;SDS011;35358;49.342;8.802;2023-03-23T07:33:11;2.88;;;0.90;;
49464;SDS011;35358;49.342;8.802;2023-03-23T07:35:37;2.03;;;0.90;;
49464;SDS011;35358;49.342;8.802;2023-03-23T07:38:03;3.67;;;1.40;;
49464;SDS011;35358;49.342;8.802;2023-03-23T07:40:30;3.00;;;1.38;;
49464;SDS011;35358;49.342;8.802;2023-03-23T07:42:58;1.92;;;0.90;;
49464;SDS011;35358;49.342;8.802;2023-03-23T07:45:25;3.35;;;1.20;;
49464;SDS011;35358;49.342;8.802;2023-03-23T07:47:52;1.00;;;0.70;;
49464;SDS011;35358;49.342;8.802;2023-03-23T07:50:21;4.80;;;2.03;;
49464;SDS011;35358;49.342;8.802;2023-03-23T07:52:49;3.08;;;1.10;;
49464;SDS011;35358;49.342;8.802;2023-03-23T07:55:15;1.45;;;0.90;;
49464;SDS011;35358;49.342;8.802;2023-03-23T07:57:48;4.78;;;1.40;;
49464;SDS011;35358;49.342;8.802;2023-03-23T08:00:14;2.97;;;0.95;;
49464;SDS011;35358;49.342;8.802;2023-03-23T08:02:51;1.80;;;0.90;;
49464;SDS011;35358;49.342;8.802;2023-03-23T08:05:20;2.95;;;1.10;;
49464;SDS011;35358;49.342;8.802;2023-03-23T08:07:50;3.83;;;1.50;;
49464;SDS011;35358;49.342;8.802;2023-03-23T08:10:16;2.33;;;1.15;;
49464;SDS011;35358;49.342;8.802;2023-03-23T08:12:43;3.60;;;1.08;;
49464;SDS011;35358;49.342;8.802;2023-03-23T08:15:10;1.52;;;0.90;;
49464;SDS011;35358;49.342;8.802;2023-03-23T08:17:40;3.60;;;0.98;;
49464;SDS011;35358;49.342;8.802;2023-03-23T08:20:07;1.67;;;0.80;;
49464;SDS011;35358;49.342;8.802;2023-03-23T08:22:37;5.13;;;1.10;;
49464;SDS011;35358;49.342;8.802;2023-03-23T08:25:08;1.02;;;0.80;;
49464;SDS011;35358;49.342;8.802;2023-03-23T08:27:35;1.00;;;0.68;;
49464;SDS011;35358;49.342;8.802;2023-03-23T08:30:08;2.00;;;0.50;;
49464;SDS011;35358;49.342;8.802;2023-03-23T08:32:39;3.20;;;0.50;;
49464;SDS011;35358;49.342;8.802;2023-03-23T08:35:06;3.67;;;0.80;;
49464;SDS011;35358;49.342;8.802;2023-03-23T08:37:38;0.55;;;0.43;;
49464;SDS011;35358;49.342;8.802;2023-03-23T08:40:06;2.90;;;0.70;;
49464;SDS011;35358;49.342;8.802;2023-03-23T08:42:39;1.10;;;0.70;;
49464;SDS011;35358;49.342;8.802;2023-03-23T08:45:11;0.60;;;0.60;;
49464;SDS011;35358;49.342;8.802;2023-03-23T08:47:39;1.20;;;0.75;;
49464;SDS011;35358;49.342;8.802;2023-03-23T08:50:06;0.95;;;0.68;;
49464;SDS011;35358;49.342;8.802;2023-03-23T08:52:36;2.03;;;0.80;;
49464;SDS011;35358;49.342;8.802;2023-03-23T08:55:04;1.88;;;0.93;;
49464;SDS011;35358;49.342;8.802;2023-03-23T08:57:30;2.53;;;0.80;;
49464;SDS011;35358;49.342;8.802;2023-03-23T08:59:56;1.77;;;0.70;;
49464;SDS011;35358;49.342;8.802;2023-03-23T09:02:30;2.65;;;0.70;;
49464;SDS011;35358;49.342;8.802;2023-03-23T09:04:59;1.38;;;0.80;;
49464;SDS011;35358;49.342;8.802;2023-03-23T09:07:26;3.22;;;0.88;;
49464;SDS011;35358;49.342;8.802;2023-03-23T09:09:54;1.58;;;0.80;;
49464;SDS011;35358;49.342;8.802;2023-03-23T09:12:21;1.63;;;0.80;;
49464;SDS011;35358;49.342;8.802;2023-03-23T09:14:48;1.60;;;0.90;;
49464;SDS011;35358;49.342;8.802;2023-03-23T09:17:16;4.45;;;1.25;;
49464;SDS011;35358;49.342;8.802;2023-03-23T09:19:44;1.25;;;0.85;;
49464;SDS011;35358;49.342;8.802;2023-03-23T09:22:11;2.38;;;1.00;;
49464;SDS011;35358;49.342;8.802;2023-03-23T09:24:37;1.92;;;0.90;;
49464;SDS011;35358;49.342;8.802;2023-03-23T09:27:06;2.28;;;1.05;;
49464;SDS011;35358;49.342;8.802;2023-03-23T09:29:34;1.98;;;1.08;;
49464;SDS011;35358;49.342;8.802;2023-03-23T09:32:00;1.73;;;0.90;;
49464;SDS011;35358;49.342;8.802;2023-03-23T09:34:28;3.50;;;1.13;;
49464;SDS011;35358;49.342;8.802;2023-03-23T09:36:54;1.17;;;0.60;;
49464;SDS011;35358;49.342;8.802;2023-03-23T09:39:31;3.15;;;0.98;;
49464;SDS011;35358;49.342;8.802;2023-03-23T09:42:04;2.75;;;0.95;;
49464;SDS011;35358;49.342;8.802;2023-03-23T09:48:05;2.10;;;0.63;;
49464;SDS011;35358;49.342;8.802;2023-03-23T09:51:02;1.85;;;0.93;;
49464;SDS011;35358;49.342;8.802;2023-03-23T09:53:37;1.35;;;1.00;;
49464;SDS011;35358;49.342;8.802;2023-03-23T09:56:14;3.22;;;1.10;;
49464;SDS011;35358;49.342;8.802;2023-03-23T09:58:49;2.10;;;1.20;;
49464;SDS011;35358;49.342;8.802;2023-03-23T10:01:30;1.52;;;1.00;;
49464;SDS011;35358;49.342;8.802;2023-03-23T10:04:24;3.85;;;1.30;;
49464;SDS011;35358;49.342;8.802;2023-03-23T10:07:16;1.33;;;1.00;;
49464;SDS011;35358;49.342;8.802;2023-03-23T10:09:47;1.98;;;1.10;;
49464;SDS011;35358;49.342;8.802;2023-03-23T10:12:26;2.55;;;1.00;;
49464;SDS011;35358;49.342;8.802;2023-03-23T10:25:52;1.05;;;0.80;;
49464;SDS011;35358;49.342;8.802;2023-03-23T10:28:39;1.50;;;0.85;;
49464;SDS011;35358;49.342;8.802;2023-03-23T10:31:10;2.15;;;0.82;;
49464;SDS011;35358;49.342;8.802;2023-03-23T10:33:40;1.58;;;0.82;;
49464;SDS011;35358;49.342;8.802;2023-03-23T10:36:10;1.65;;;0.80;;
49464;SDS011;35358;49.342;8.802;2023-03-23T10:39:04;2.05;;;0.88;;
49464;SDS011;35358;49.342;8.802;2023-03-23T10:41:32;1.52;;;0.77;;
49464;SDS011;35358;49.342;8.802;2023-03-23T10:44:01;0.88;;;0.60;;
49464;SDS011;35358;49.342;8.802;2023-03-23T10:46:33;1.00;;;0.63;;
49464;SDS011;35358;49.342;8.802;2023-03-23T10:49:04;3.13;;;1.23;;
49464;SDS011;35358;49.342;8.802;2023-03-23T10:51:35;1.27;;;0.75;;
49464;SDS011;35358;49.342;8.802;2023-03-23T10:54:04;1.50;;;1.20;;
49464;SDS011;35358;49.342;8.802;2023-03-23T10:56:35;0.75;;;0.70;;
49464;SDS011;35358;49.342;8.802;2023-03-23T10:59:15;0.52;;;0.47;;
49464;SDS011;35358;49.342;8.802;2023-03-23T11:01:45;1.30;;;0.50;;
49464;SDS011;35358;49.342;8.802;2023-03-23T11:04:16;0.65;;;0.50;;
49464;SDS011;35358;49.342;8.802;2023-03-23T11:06:45;3.13;;;0.50;;
49464;SDS011;35358;49.342;8.802;2023-03-23T11:09:14;0.80;;;0.60;;
49464;SDS011;35358;49.342;8.802;2023-03-23T11:11:50;1.58;;;0.45;;
49464;SDS011;35358;49.342;8.802;2023-03-23T11:16:58;1.42;;;0.50;;
49464;SDS011;35358;49.342;8.802;2023-03-23T11:19:32;1.35;;;0.70;;
49464;SDS011;35358;49.342;8.802;2023-03-23T11:24:33;1.30;;;0.82;;
49464;SDS011;35358;49.342;8.802;2023-03-23T11:27:09;3.25;;;0.68;;
49464;SDS011;35358;49.342;8.802;2023-03-23T11:29:37;1.58;;;0.68;;
49464;SDS011;35358;49.342;8.802;2023-03-23T11:32:17;0.95;;;0.85;;
49464;SDS011;35358;49.342;8.802;2023-03-23T11:34:48;1.92;;;1.00;;
49464;SDS011;35358;49.342;8.802;2023-03-23T11:42:38;2.25;;;0.98;;
49464;SDS011;35358;49.342;8.802;2023-03-23T11:48:32;1.95;;;1.00;;
49464;SDS011;35358;49.342;8.802;2023-03-23T11:53:40;1.58;;;0.90;;
49464;SDS011;35358;49.342;8.802;2023-03-23T11:56:22;1.80;;;1.10;;
49464;SDS011;35358;49.342;8.802;2023-03-23T11:58:58;1.75;;;1.20;;
49464;SDS011;35358;49.342;8.802;2023-03-23T12:09:53;1.98;;;1.35;;
49464;SDS011;35358;49.342;8.802;2023-03-23T12:12:50;3.38;;;1.40;;
49464;SDS011;35358;49.342;8.802;2023-03-23T12:15:37;1.17;;;0.90;;
49464;SDS011;35358;49.342;8.802;2023-03-23T12:43:45;1.23;;;0.73;;
49464;SDS011;35358;49.342;8.802;2023-03-23T12:48:49;2.08;;;1.10;;
49464;SDS011;35358;49.342;8.802;2023-03-23T12:51:26;2.85;;;1.40;;
49464;SDS011;35358;49.342;8.802;2023-03-23T12:54:16;3.88;;;1.10;;
49464;SDS011;35358;49.342;8.802;2023-03-23T13:02:31;2.30;;;1.40;;
49464;SDS011;35358;49.342;8.802;2023-03-23T13:05:26;1.33;;;0.82;;
49464;SDS011;35358;49.342;8.802;2023-03-23T13:07:53;2.67;;;1.20;;
49464;SDS011;35358;49.342;8.802;2023-03-23T13:10:32;2.83;;;1.35;;
49464;SDS011;35358;49.342;8.802;2023-03-23T13:13:06;1.20;;;1.00;;
49464;SDS011;35358;49.342;8.802;2023-03-23T13:15:46;3.35;;;1.25;;
49464;SDS011;35358;49.342;8.802;2023-03-23T13:21:21;4.53;;;1.90;;
49464;SDS011;35358;49.342;8.802;2023-03-23T13:23:58;2.15;;;1.08;;
49464;SDS011;35358;49.342;8.802;2023-03-23T13:26:28;4.30;;;1.20;;
49464;SDS011;35358;49.342;8.802;2023-03-23T13:29:28;1.75;;;1.05;;
49464;SDS011;35358;49.342;8.802;2023-03-23T13:32:03;2.28;;;1.83;;
49464;SDS011;35358;49.342;8.802;2023-03-23T13:34:49;2.15;;;1.42;;
49464;SDS011;35358;49.342;8.802;2023-03-23T13:37:23;1.65;;;1.25;;
49464;SDS011;35358;49.342;8.802;2023-03-23T13:39:54;1.42;;;0.88;;
49464;SDS011;35358;49.342;8.802;2023-03-23T13:42:24;1.33;;;0.98;;
49464;SDS011;35358;49.342;8.802;2023-03-23T13:49:52;3.55;;;1.02;;
49464;SDS011;35358;49.342;8.802;2023-03-23T13:57:52;1.20;;;0.70;;
49464;SDS011;35358;49.342;8.802;2023-03-23T14:06:13;2.45;;;1.00;;
49464;SDS011;35358;49.342;8.802;2023-03-23T14:08:42;2.50;;;0.77;;
49464;SDS011;35358;49.342;8.802;2023-03-23T14:13:44;1.48;;;0.90;;
49464;SDS011;35358;49.342;8.802;2023-03-23T14:18:40;1.73;;;1.60;;
49464;SDS011;35358;49.342;8.802;2023-03-23T14:21:15;2.28;;;0.77;;
49464;SDS011;35358;49.342;8.802;2023-03-23T14:23:42;2.45;;;0.70;;
49464;SDS011;35358;49.342;8.802;2023-03-23T14:26:15;3.45;;;0.70;;
49464;SDS011;35358;49.342;8.802;2023-03-23T14:28:44;1.77;;;0.70;;
49464;SDS011;35358;49.342;8.802;2023-03-23T14:31:32;1.52;;;1.00;;
49464;SDS011;35358;49.342;8.802;2023-03-23T14:34:02;2.83;;;1.13;;
49464;SDS011;35358;49.342;8.802;2023-03-23T14:36:31;2.15;;;1.10;;
49464;SDS011;35358;49.342;8.802;2023-03-23T14:39:04;3.70;;;0.97;;
49464;SDS011;35358;49.342;8.802;2023-03-23T14:41:36;2.33;;;1.00;;
49464;SDS011;35358;49.342;8.802;2023-03-23T14:44:06;2.08;;;0.70;;
49464;SDS011;35358;49.342;8.802;2023-03-23T14:46:33;0.80;;;0.70;;
49464;SDS011;35358;49.342;8.802;2023-03-23T14:49:03;1.88;;;0.60;;
49464;SDS011;35358;49.342;8.802;2023-03-23T14:51:33;0.85;;;0.60;;
49464;SDS011;35358;49.342;8.802;2023-03-23T14:54:00;1.90;;;1.00;;
49464;SDS011;35358;49.342;8.802;2023-03-23T14:56:32;2.00;;;0.90;;
49464;SDS011;35358;49.342;8.802;2023-03-23T14:59:05;0.90;;;0.80;;
49464;SDS011;35358;49.342;8.802;2023-03-23T15:01:36;1.10;;;0.90;;
49464;SDS011;35358;49.342;8.802;2023-03-23T15:04:08;1.65;;;1.20;;
49464;SDS011;35358;49.342;8.802;2023-03-23T15:06:42;2.10;;;0.80;;
49464;SDS011;35358;49.342;8.802;2023-03-23T15:11:42;3.95;;;1.65;;
49464;SDS011;35358;49.342;8.802;2023-03-23T15:14:15;5.43;;;1.38;;
49464;SDS011;35358;49.342;8.802;2023-03-23T15:16:49;4.35;;;2.35;;
49464;SDS011;35358;49.342;8.802;2023-03-23T15:19:18;2.67;;;2.05;;
49464;SDS011;35358;49.342;8.802;2023-03-23T15:24:24;5.97;;;3.40;;
49464;SDS011;35358;49.342;8.802;2023-03-23T15:30:11;6.30;;;3.35;;
49464;SDS011;35358;49.342;8.802;2023-03-23T15:32:41;7.07;;;4.18;;
49464;SDS011;35358;49.342;8.802;2023-03-23T15:35:16;7.88;;;3.90;;
49464;SDS011;35358;49.342;8.802;2023-03-23T15:37:50;5.05;;;2.00;;
49464;SDS011;35358;49.342;8.802;2023-03-23T15:40:25;3.25;;;2.20;;
49464;SDS011;35358;49.342;8.802;2023-03-23T15:48:33;3.13;;;2.30;;
49464;SDS011;35358;49.342;8.802;2023-03-23T15:51:23;2.92;;;1.48;;
49464;SDS011;35358;49.342;8.802;2023-03-23T15:53:50;3.03;;;1.60;;
49464;SDS011;35358;49.342;8.802;2023-03-23T15:56:17;4.60;;;1.35;;
49464;SDS011;35358;49.342;8.802;2023-03-23T15:58:43;1.73;;;1.10;;
49464;SDS011;35358;49.342;8.802;2023-03-23T16:01:13;2.78;;;1.58;;
49464;SDS011;35358;49.342;8.802;2023-03-23T16:03:49;3.15;;;1.50;;
49464;SDS011;35358;49.342;8.802;2023-03-23T16:06:19;4.18;;;2.00;;
49464;SDS011;35358;49.342;8.802;2023-03-23T16:08:46;3.60;;;1.63;;
49464;SDS011;35358;49.342;8.802;2023-03-23T16:11:13;1.48;;;1.20;;
49464;SDS011;35358;49.342;8.802;2023-03-23T16:16:13;1.92;;;1.17;;
49464;SDS011;35358;49.342;8.802;2023-03-23T16:18:43;3.65;;;1.40;;
49464;SDS011;35358;49.342;8.802;2023-03-23T16:21:13;2.25;;;1.25;;
49464;SDS011;35358;49.342;8.802;2023-03-23T16:23:39;1.65;;;1.20;;
49464;SDS011;35358;49.342;8.802;2023-03-23T16:26:08;1.27;;;0.88;;
49464;SDS011;35358;49.342;8.802;2023-03-23T16:28:34;3.47;;;1.75;;
49464;SDS011;35358;49.342;8.802;2023-03-23T16:31:00;3.08;;;1.80;;
49464;SDS011;35358;49.342;8.802;2023-03-23T16:33:25;6.20;;;1.70;;
49464;SDS011;35358;49.342;8.802;2023-03-23T16:35:51;3.92;;;1.88;;
49464;SDS011;35358;49.342;8.802;2023-03-23T16:38:19;2.65;;;1.63;;
49464;SDS011;35358;49.342;8.802;2023-03-23T16:40:46;4.32;;;2.00;;
49464;SDS011;35358;49.342;8.802;2023-03-23T16:43:12;5.03;;;2.28;;
49464;SDS011;35358;49.342;8.802;2023-03-23T16:45:41;2.88;;;1.67;;
49464;SDS011;35358;49.342;8.802;2023-03-23T16:48:08;4.18;;;1.80;;
49464;SDS011;35358;49.342;8.802;2023-03-23T16:50:37;4.05;;;1.70;;
49464;SDS011;35358;49.342;8.802;2023-03-23T16:53:04;4.25;;;1.88;;
49464;SDS011;35358;49.342;8.802;2023-03-23T16:55:32;3.97;;;3.20;;
49464;SDS011;35358;49.342;8.802;2023-03-23T16:58:01;3.85;;;2.38;;
49464;SDS011;35358;49.342;8.802;2023-03-23T17:00:27;5.88;;;3.03;;
49464;SDS011;35358;49.342;8.802;2023-03-23T17:02:55;6.90;;;4.80;;
49464;SDS011;35358;49.342;8.802;2023-03-23T17:05:24;5.05;;;4.47;;
49464;SDS011;35358;49.342;8.802;2023-03-23T17:07:51;6.32;;;4.38;;
49464;SDS011;35358;49.342;8.802;2023-03-23T17:10:22;11.68;;;5.70;;
49464;SDS011;35358;49.342;8.802;2023-03-23T17:12:51;10.48;;;4.28;;
49464;SDS011;35358;49.342;8.802;2023-03-23T17:15:18;23.85;;;11.18;;
49464;SDS011;35358;49.342;8.802;2023-03-23T17:17:46;11.73;;;5.18;;
49464;SDS011;35358;49.342;8.802;2023-03-23T17:20:12;9.13;;;5.40;;
49464;SDS011;35358;49.342;8.802;2023-03-23T17:22:40;5.82;;;3.78;;
49464;SDS011;35358;49.342;8.802;2023-03-23T17:25:06;5.03;;;3.83;;
49464;SDS011;35358;49.342;8.802;2023-03-23T17:27:33;11.88;;;7.18;;
49464;SDS011;35358;49.342;8.802;2023-03-23T17:29:59;12.32;;;7.75;;